createdAt,value
2022-08-05T00:00:32.973Z,20.59
2022-08-05T00:06:05.582Z,20.68
2022-08-05T00:10:47.317Z,20.75
2022-08-05T00:15:58.367Z,20.88
2022-08-05T00:21:01.956Z,21.01
2022-08-05T00:26:08.906Z,21.17
2022-08-05T00:31:15.893Z,21.25
2022-08-05T00:37:12.996Z,21.27
2022-08-05T00:41:29.963Z,21.32
2022-08-05T00:46:43.462Z,21.41
2022-08-05T00:51:51.580Z,21.51
2022-08-05T00:56:51.437Z,21.59
2022-08-05T01:01:58.841Z,21.59
2022-08-05T01:07:05.785Z,21.70
2022-08-05T01:12:18.525Z,21.85
2022-08-05T01:17:19.749Z,22.04
2022-08-05T01:22:28.301Z,22.26
2022-08-05T01:27:34.326Z,22.47
2022-08-05T01:32:41.199Z,22.67
2022-08-05T01:37:48.615Z,22.86
2022-08-05T01:42:57.478Z,23.07
2022-08-05T01:48:02.899Z,23.27
2022-08-05T01:53:09.996Z,23.46
2022-08-05T01:58:16.923Z,23.60
2022-08-05T02:03:24.418Z,23.75
2022-08-05T02:08:31.532Z,23.96
2022-08-05T02:13:53.824Z,24.07
2022-08-05T02:18:45.510Z,24.21
2022-08-05T02:23:52.426Z,24.35
2022-08-05T02:28:59.488Z,24.50
2022-08-05T02:34:06.427Z,24.62
2022-08-05T02:39:13.984Z,24.78
2022-08-05T02:44:20.882Z,24.99
2022-08-05T02:49:37.019Z,25.18
2022-08-05T02:54:37.049Z,25.36
2022-08-05T02:59:50.150Z,25.46
2022-08-05T03:04:53.207Z,25.52
2022-08-05T03:09:56.503Z,25.63
2022-08-05T03:15:03.415Z,25.74
2022-08-05T03:15:03.482Z,25.74
2022-08-05T03:20:10.882Z,25.87
2022-08-05T03:25:32.956Z,25.93
2022-08-05T03:30:30.261Z,26.04
2022-08-05T03:35:33.972Z,26.13
2022-08-05T03:40:39.292Z,26.19
2022-08-05T03:45:55.097Z,26.31
2022-08-05T03:50:53.227Z,26.41
2022-08-05T03:56:11.946Z,26.47
2022-08-05T04:01:07.749Z,26.39
2022-08-05T04:06:14.835Z,26.40
2022-08-05T04:11:21.927Z,26.38
2022-08-05T04:16:32.293Z,26.39
2022-08-05T04:22:08.506Z,26.45
2022-08-05T04:26:43.190Z,26.41
2022-08-05T04:31:50.185Z,26.19
2022-08-05T04:36:57.757Z,25.93
2022-08-05T04:42:04.720Z,25.86
2022-08-05T04:47:14.605Z,25.87
2022-08-05T04:52:18.941Z,25.60
2022-08-05T04:57:28.514Z,25.25
2022-08-05T05:02:36.166Z,24.99
2022-08-05T05:07:40.200Z,24.60
2022-08-05T05:12:47.147Z,24.36
2022-08-05T05:17:57.083Z,24.17
2022-08-05T05:23:08.324Z,24.04
2022-08-05T05:28:09.353Z,24.00
2022-08-05T05:33:17.554Z,24.08
2022-08-05T05:38:27.433Z,24.25
2022-08-05T05:43:58.031Z,24.26
2022-08-05T05:48:37.277Z,24.22
2022-08-05T05:53:54.063Z,24.22
2022-08-05T05:58:51.567Z,24.19
2022-08-05T06:04:02.184Z,24.13
2022-08-05T06:09:06.015Z,24.19
2022-08-05T06:19:34.136Z,24.51
2022-08-05T06:24:27.397Z,24.68
2022-08-05T06:29:46.723Z,25.10
2022-08-05T06:34:40.998Z,24.78
2022-08-05T06:39:48.798Z,24.10
2022-08-05T06:44:55.685Z,23.35
2022-08-05T06:50:05.384Z,23.00
2022-08-05T06:55:09.816Z,22.82
2022-08-05T07:00:22.183Z,22.96
2022-08-05T07:05:36.976Z,23.17
2022-08-05T07:10:32.678Z,22.97
2022-08-05T07:16:01.098Z,21.96
2022-08-05T07:20:45.511Z,21.19
2022-08-05T07:25:55.464Z,21.14
2022-08-05T07:30:59.949Z,21.43
2022-08-05T07:36:20.042Z,21.81
2022-08-05T07:41:35.026Z,22.10
2022-08-05T07:46:25.240Z,22.21
2022-08-05T07:51:40.256Z,22.37
2022-08-05T07:57:00.033Z,22.89
2022-08-05T08:01:52.088Z,23.60
2022-08-05T08:06:49.643Z,24.32
2022-08-05T08:12:00.090Z,25.14
2022-08-05T08:17:04.014Z,25.84
2022-08-05T08:22:11.180Z,26.39
2022-08-05T08:27:18.256Z,26.73
2022-08-05T08:32:28.185Z,27.01
2022-08-05T08:37:32.326Z,26.86
2022-08-05T08:42:50.978Z,26.70
2022-08-05T08:48:06.619Z,26.69
2022-08-05T08:52:54.021Z,26.81
2022-08-05T08:58:01.005Z,27.04
2022-08-05T09:08:15.057Z,27.49
2022-08-05T09:13:23.648Z,27.73
2022-08-05T09:18:29.706Z,28.05
2022-08-05T09:23:37.437Z,28.00
2022-08-05T09:28:43.609Z,27.88
2022-08-05T09:33:51.018Z,27.85
2022-08-05T09:38:58.076Z,27.12
2022-08-05T09:44:05.209Z,26.56
2022-08-05T09:49:19.551Z,26.28
2022-08-05T09:54:21.375Z,25.89
2022-08-05T09:59:27.675Z,25.73
2022-08-05T10:04:33.436Z,26.11
2022-08-05T10:09:45.471Z,26.78
2022-08-05T10:14:48.029Z,28.00
2022-08-05T10:20:03.884Z,28.92
2022-08-05T10:25:02.107Z,29.37
2022-08-05T10:31:20.727Z,29.18
2022-08-05T10:35:16.537Z,28.97
2022-08-05T10:40:28.322Z,28.97
2022-08-05T10:45:41.878Z,29.00
2022-08-05T10:50:37.704Z,29.16
2022-08-05T10:56:05.474Z,29.30
2022-08-05T11:00:55.459Z,28.96
2022-08-05T11:05:58.815Z,27.56
2022-08-05T11:11:14.590Z,26.69
2022-08-05T11:16:13.199Z,26.37
2022-08-05T11:21:20.173Z,25.81
2022-08-05T11:26:29.267Z,24.29
2022-08-05T11:31:58.023Z,22.33
2022-08-05T11:36:42.740Z,20.76
2022-08-05T11:41:56.492Z,19.51
2022-08-05T11:47:09.380Z,18.59
2022-08-05T11:52:08.424Z,18.00
2022-08-05T11:57:24.785Z,17.27
2022-08-05T12:02:30.035Z,16.60
2022-08-05T12:08:09.692Z,16.06
2022-08-05T12:12:31.638Z,15.74
2022-08-05T12:18:03.918Z,15.39
2022-08-05T12:22:46.405Z,15.25
2022-08-05T12:27:53.663Z,14.88
2022-08-05T12:33:07.544Z,14.53
2022-08-05T12:38:07.540Z,14.44
2022-08-05T12:43:21.132Z,14.64
2022-08-05T12:48:32.329Z,14.92
2022-08-05T12:53:36.785Z,14.87
2022-08-05T12:58:48.201Z,15.14
2022-08-05T13:03:45.468Z,15.68
2022-08-05T13:08:51.920Z,16.06
2022-08-05T13:14:05.835Z,16.86
2022-08-05T13:19:04.798Z,17.94
2022-08-05T13:24:11.761Z,18.53
2022-08-05T13:29:19.364Z,18.80
2022-08-05T13:34:26.538Z,18.95
2022-08-05T13:40:16.128Z,18.87
2022-08-05T13:44:45.072Z,18.83
2022-08-05T13:49:47.955Z,18.80
2022-08-05T13:54:54.990Z,19.03
2022-08-05T14:00:03.441Z,19.43
2022-08-05T14:05:11.442Z,19.93
2022-08-05T14:10:19.065Z,20.35
2022-08-05T14:16:04.664Z,20.38
2022-08-05T14:20:30.739Z,19.72
2022-08-05T14:25:37.685Z,19.13
2022-08-05T14:30:46.384Z,19.06
2022-08-05T14:35:54.069Z,19.39
2022-08-05T14:40:59.171Z,20.03
2022-08-05T14:46:06.652Z,20.70
2022-08-05T14:51:16.123Z,21.30
2022-08-05T14:56:22.626Z,21.86
2022-08-05T15:01:48.703Z,22.51
2022-08-05T15:06:35.097Z,23.19
2022-08-05T15:11:51.323Z,23.93
2022-08-05T15:16:49.012Z,24.56
2022-08-05T15:21:58.013Z,25.15
2022-08-05T15:27:03.495Z,25.64
2022-08-05T15:32:10.850Z,26.10
2022-08-05T15:38:03.749Z,26.53
2022-08-05T15:42:53.498Z,26.91
2022-08-05T15:47:31.932Z,27.26
2022-08-05T15:52:52.742Z,27.55
2022-08-05T15:57:49.051Z,27.79
2022-08-05T16:02:53.424Z,28.03
2022-08-05T16:08:00.730Z,28.15
2022-08-05T16:13:07.894Z,28.18
2022-08-05T16:18:14.891Z,28.27
2022-08-05T16:23:21.819Z,28.38
2022-08-05T16:28:29.248Z,28.55
2022-08-05T16:33:41.387Z,28.67
2022-08-05T16:38:43.432Z,28.75
2022-08-05T16:43:56.590Z,28.88
2022-08-05T16:48:57.945Z,29.11
2022-08-05T16:54:15.084Z,29.42
2022-08-05T16:59:15.630Z,29.66
2022-08-05T17:04:19.044Z,29.90
2022-08-05T17:09:26.025Z,30.07
2022-08-05T17:14:36.796Z,30.23
2022-08-05T17:19:40.646Z,30.54
2022-08-05T17:24:57.640Z,30.90
2022-08-05T17:30:00.662Z,31.22
2022-08-05T17:35:01.852Z,31.60
2022-08-05T17:40:10.835Z,32.02
2022-08-05T17:45:20.032Z,32.47
2022-08-05T17:50:29.669Z,32.81
2022-08-05T17:55:37.235Z,33.19
2022-08-05T18:00:40.773Z,33.68
2022-08-05T18:05:44.375Z,34.08
2022-08-05T18:10:51.745Z,34.38
2022-08-05T18:15:59.091Z,34.52
2022-08-05T18:21:05.685Z,34.66
2022-08-05T18:26:13.050Z,34.79
2022-08-05T18:31:20.075Z,34.89
2022-08-05T18:36:28.247Z,34.96
2022-08-05T18:41:58.226Z,35.01
2022-08-05T18:46:43.166Z,35.02
2022-08-05T18:52:04.098Z,35.08
2022-08-05T18:56:57.101Z,35.13
2022-08-05T19:07:09.963Z,35.22
2022-08-05T19:12:16.967Z,35.28
2022-08-05T19:17:23.964Z,35.36
2022-08-05T19:22:31.202Z,35.42
2022-08-05T19:27:38.509Z,35.43
2022-08-05T19:32:45.588Z,35.50
2022-08-05T19:38:06.037Z,35.54
2022-08-05T19:43:00.741Z,35.55
2022-08-05T19:48:06.704Z,35.62
2022-08-05T19:53:13.649Z,35.67
2022-08-05T19:58:28.462Z,35.70
2022-08-05T20:03:29.261Z,35.78
2022-08-05T20:08:34.994Z,35.83
2022-08-05T20:18:55.344Z,35.77
2022-08-05T20:23:56.412Z,35.74
2022-08-05T20:29:03.541Z,35.81
2022-08-05T20:34:10.648Z,35.84
2022-08-05T20:39:17.693Z,35.82
2022-08-05T20:44:30.270Z,35.77
2022-08-05T20:49:37.855Z,35.76
2022-08-05T20:54:55.315Z,35.77
2022-08-05T21:00:19.757Z,35.85
2022-08-05T21:04:53.162Z,35.96
2022-08-05T21:10:00.155Z,36.04
2022-08-05T21:15:07.746Z,36.12
2022-08-05T21:20:14.679Z,36.07
2022-08-05T21:25:21.752Z,35.97
2022-08-05T21:30:31.866Z,35.91
2022-08-05T21:35:55.481Z,35.90
2022-08-05T21:40:42.956Z,35.88
2022-08-05T21:45:56.880Z,35.90
2022-08-05T21:50:57.412Z,36.01
2022-08-05T21:56:09.865Z,36.13
2022-08-05T22:01:11.316Z,36.29
2022-08-05T22:06:22.789Z,36.36
2022-08-05T22:11:34.966Z,36.40
2022-08-05T22:16:50.873Z,36.43
2022-08-05T22:21:39.454Z,36.48
2022-08-05T22:26:49.637Z,36.54
2022-08-05T22:31:55.131Z,36.61
2022-08-05T22:37:00.896Z,36.67
2022-08-05T22:42:11.016Z,36.75
2022-08-05T22:47:29.018Z,36.84
2022-08-05T22:52:30.254Z,36.92
2022-08-05T22:57:34.025Z,36.99
2022-08-05T23:02:39.781Z,37.02
2022-08-05T23:07:48.262Z,37.04
2022-08-05T23:12:51.717Z,37.07
2022-08-05T23:17:59.886Z,37.11
2022-08-05T23:23:05.991Z,37.22
2022-08-05T23:28:12.093Z,37.37
2022-08-05T23:33:25.736Z,37.46
2022-08-05T23:38:26.191Z,37.50
2022-08-05T23:44:02.940Z,37.57
2022-08-05T23:48:40.686Z,37.68
2022-08-05T23:53:47.606Z,37.69
2022-08-05T23:58:54.601Z,37.73
